PWSweather.com
Personal Weather Stations
Station Observations

BlenheimNZ 7201

Lat: -41.5122524, Lon: 173.9699142

Elevation: 25

Station Type: WH1081

http://www.tokaanuskihire.co.nz/blenheimweather/BlenheimWeather.html

High Low Average
Temperature 58.9°F14.9°C 40.3°F4.6°C 51.0°F10.6°C
Dew Point 48.6°F9.2°C 39.8°F4.3°C 45.8°F7.7°C
Winds 3.8 mph 6.1 kmh Calm Calm 1.0 mph SSE1.6 kmh SSE
Wind Gusts 8.3 mph13.4 kmh -- 3.0 mph4.8 kmh
Humidity 98% 66% 83%
Pressure 30.63 in1037.3 mb 30.40 in1029.5 mb -
Precipitation 0.00 in0.0 mm - -
Hour Temp Dew Point Humidity Winds Wind Gusts Pressure Precip Precip Rate Daily Precip Total
12:00 AM 50.5°F10.3°C 48.0°F8.9°C 91% Calm Calm 0.7 mph1.1 kmh 30.63 in1037.3 mb 0.00 in0.0 mm 0.00 in/hr0.0 mm/hr 0.00 in0.0 mm
12:30 AM 50.3°F10.2°C 48.4°F9.1°C 93% 0.7 mph W1.1 kmh W 2.2 mph3.5 kmh 30.63 in1037.3 mb 0.00 in0.0 mm 0.00 in/hr0.0 mm/hr 0.00 in0.0 mm
01:00 AM 50.4°F10.2°C 48.4°F9.1°C 93% Calm Calm 1.6 mph2.6 kmh 30.62 in1036.9 mb 0.00 in0.0 mm 0.00 in/hr0.0 mm/hr 0.00 in0.0 mm
01:30 AM 50.5°F10.3°C 48.6°F9.2°C 93% Calm Calm -- 30.61 in1036.6 mb 0.00 in0.0 mm 0.00 in/hr0.0 mm/hr 0.00 in0.0 mm
02:00 AM 50.2°F10.1°C 48.2°F9.0°C 93% Calm Calm 0.7 mph1.1 kmh 30.61 in1036.6 mb 0.00 in0.0 mm 0.00 in/hr0.0 mm/hr 0.00 in0.0 mm
02:30 AM 50.0°F10.0°C 48.3°F9.1°C 94% Calm Calm 0.7 mph1.1 kmh 30.61 in1036.6 mb 0.00 in0.0 mm 0.00 in/hr0.0 mm/hr 0.00 in0.0 mm
03:00 AM 50.0°F10.0°C 48.6°F9.2°C 95% Calm Calm 0.7 mph1.1 kmh 30.60 in1036.2 mb 0.00 in0.0 mm 0.00 in/hr0.0 mm/hr 0.00 in0.0 mm
03:30 AM 49.8°F9.9°C 48.4°F9.1°C 95% Calm Calm 0.7 mph1.1 kmh 30.59 in1035.9 mb 0.00 in0.0 mm 0.00 in/hr0.0 mm/hr 0.00 in0.0 mm
04:00 AM 50.0°F10.0°C 48.3°F9.1°C 94% Calm Calm -- 30.59 in1035.9 mb 0.00 in0.0 mm 0.00 in/hr0.0 mm/hr 0.00 in0.0 mm
04:30 AM 50.0°F10.0°C 48.1°F8.9°C 93% Calm Calm 0.7 mph1.1 kmh 30.58 in1035.6 mb 0.00 in0.0 mm 0.00 in/hr0.0 mm/hr 0.00 in0.0 mm
05:00 AM 50.4°F10.2°C 47.2°F8.4°C 89% 0.4 mph E0.6 kmh E 1.6 mph2.6 kmh 30.58 in1035.6 mb 0.00 in0.0 mm 0.00 in/hr0.0 mm/hr 0.00 in0.0 mm
05:30 AM 50.7°F10.4°C 45.7°F7.6°C 83% 2.8 mph E4.5 kmh E 5.4 mph8.7 kmh 30.59 in1035.9 mb 0.00 in0.0 mm 0.00 in/hr0.0 mm/hr 0.00 in0.0 mm
06:00 AM 50.9°F10.5°C 45.9°F7.7°C 83% 0.5 mph SE0.8 kmh SE 1.6 mph2.6 kmh 30.58 in1035.6 mb 0.00 in0.0 mm 0.00 in/hr0.0 mm/hr 0.00 in0.0 mm
06:30 AM 50.5°F10.3°C 45.6°F7.6°C 83% Calm Calm 1.6 mph2.6 kmh 30.58 in1035.6 mb 0.00 in0.0 mm 0.00 in/hr0.0 mm/hr 0.00 in0.0 mm
07:00 AM 50.3°F10.2°C 45.4°F7.4°C 83% Calm Calm 1.6 mph2.6 kmh 30.58 in1035.6 mb 0.00 in0.0 mm 0.00 in/hr0.0 mm/hr 0.00 in0.0 mm
07:30 AM 50.4°F10.2°C 45.1°F7.3°C 82% 1.1 mph SW1.8 kmh SW 3.8 mph6.1 kmh 30.59 in1035.9 mb 0.00 in0.0 mm 0.00 in/hr0.0 mm/hr 0.00 in0.0 mm
08:00 AM 50.4°F10.2°C 45.1°F7.3°C 82% 0.5 mph E0.8 kmh E 2.2 mph3.5 kmh 30.59 in1035.9 mb 0.00 in0.0 mm 0.00 in/hr0.0 mm/hr 0.00 in0.0 mm
08:30 AM 51.1°F10.6°C 45.8°F7.7°C 82% Calm Calm 1.6 mph2.6 kmh 30.60 in1036.2 mb 0.00 in0.0 mm 0.00 in/hr0.0 mm/hr 0.00 in0.0 mm
09:00 AM 52.2°F11.2°C 46.2°F7.9°C 80% 0.7 mph E1.1 kmh E 3.1 mph5.0 kmh 30.59 in1035.9 mb 0.00 in0.0 mm 0.00 in/hr0.0 mm/hr 0.00 in0.0 mm
09:30 AM 52.7°F11.5°C 45.3°F7.4°C 76% 2.7 mph E4.3 kmh E 5.4 mph8.7 kmh 30.59 in1035.9 mb 0.00 in0.0 mm 0.00 in/hr0.0 mm/hr 0.00 in0.0 mm
10:00 AM 53.1°F11.7°C 45.4°F7.4°C 75% 3.8 mph E6.1 kmh E 6.0 mph9.7 kmh 30.58 in1035.6 mb 0.00 in0.0 mm 0.00 in/hr0.0 mm/hr 0.00 in0.0 mm
10:30 AM 54.0°F12.2°C 45.5°F7.5°C 73% 3.1 mph E5.0 kmh E 4.5 mph7.2 kmh 30.58 in1035.6 mb 0.00 in0.0 mm 0.00 in/hr0.0 mm/hr 0.00 in0.0 mm
11:00 AM 54.7°F12.6°C 45.9°F7.7°C 72% 3.2 mph E5.1 kmh E 8.3 mph13.4 kmh 30.57 in1035.2 mb 0.00 in0.0 mm 0.00 in/hr0.0 mm/hr 0.00 in0.0 mm
11:30 AM 56.5°F13.6°C 46.4°F8.0°C 69% 2.7 mph NE4.3 kmh NE 5.4 mph8.7 kmh 30.56 in1034.9 mb 0.00 in0.0 mm 0.00 in/hr0.0 mm/hr 0.00 in0.0 mm
12:00 PM 57.2°F14.0°C 46.4°F8.0°C 67% 2.8 mph E4.5 kmh E 7.6 mph12.2 kmh 30.54 in1034.2 mb 0.00 in0.0 mm 0.00 in/hr0.0 mm/hr 0.00 in0.0 mm
12:30 PM 57.8°F14.3°C 46.9°F8.3°C 67% 1.2 mph ENE1.9 kmh ENE 4.5 mph7.2 kmh 30.53 in1033.9 mb 0.00 in0.0 mm 0.00 in/hr0.0 mm/hr 0.00 in0.0 mm
01:00 PM 58.3°F14.6°C 47.4°F8.6°C 67% 1.1 mph NNE1.8 kmh NNE 5.4 mph8.7 kmh 30.52 in1033.5 mb 0.00 in0.0 mm 0.00 in/hr0.0 mm/hr 0.00 in0.0 mm
01:30 PM 58.9°F14.9°C 47.6°F8.7°C 66% 3.8 mph E6.1 kmh E 8.3 mph13.4 kmh 30.50 in1032.8 mb 0.00 in0.0 mm 0.00 in/hr0.0 mm/hr 0.00 in0.0 mm
02:00 PM 57.5°F14.2°C 47.4°F8.6°C 69% 1.9 mph N3.1 kmh N 5.4 mph8.7 kmh 30.50 in1032.8 mb 0.00 in0.0 mm 0.00 in/hr0.0 mm/hr 0.00 in0.0 mm
02:30 PM 57.6°F14.2°C 47.5°F8.6°C 69% 3.6 mph NE5.8 kmh NE 6.0 mph9.7 kmh 30.48 in1032.2 mb 0.00 in0.0 mm 0.00 in/hr0.0 mm/hr 0.00 in0.0 mm
03:00 PM 57.4°F14.1°C 46.9°F8.3°C 68% 3.1 mph E5.0 kmh E 5.4 mph8.7 kmh 30.48 in1032.2 mb 0.00 in0.0 mm 0.00 in/hr0.0 mm/hr 0.00 in0.0 mm
03:30 PM 56.8°F13.8°C 47.5°F8.6°C 71% 3.5 mph N5.6 kmh N 4.5 mph7.2 kmh 30.48 in1032.2 mb 0.00 in0.0 mm 0.00 in/hr0.0 mm/hr 0.00 in0.0 mm
04:00 PM 55.2°F12.9°C 46.7°F8.2°C 73% 1.5 mph E2.4 kmh E 3.8 mph6.1 kmh 30.47 in1031.8 mb 0.00 in0.0 mm 0.00 in/hr0.0 mm/hr 0.00 in0.0 mm
04:30 PM 54.1°F12.3°C 46.4°F8.0°C 75% 0.3 mph E0.5 kmh E 3.1 mph5.0 kmh 30.46 in1031.5 mb 0.00 in0.0 mm 0.00 in/hr0.0 mm/hr 0.00 in0.0 mm
05:00 PM 55.7°F13.2°C 47.6°F8.7°C 74% Calm Calm 0.7 mph1.1 kmh 30.46 in1031.5 mb 0.00 in0.0 mm 0.00 in/hr0.0 mm/hr 0.00 in0.0 mm
05:30 PM 51.0°F10.6°C 44.1°F6.7°C 77% Calm Calm -- 30.46 in1031.5 mb 0.00 in0.0 mm 0.00 in/hr0.0 mm/hr 0.00 in0.0 mm
06:00 PM 49.3°F9.6°C 44.6°F7.0°C 84% Calm Calm 0.7 mph1.1 kmh 30.46 in1031.5 mb 0.00 in0.0 mm 0.00 in/hr0.0 mm/hr 0.00 in0.0 mm
06:30 PM 49.5°F9.7°C 45.8°F7.7°C 87% 1.0 mph W1.6 kmh W 2.2 mph3.5 kmh 30.46 in1031.5 mb 0.00 in0.0 mm 0.00 in/hr0.0 mm/hr 0.00 in0.0 mm
07:00 PM 49.1°F9.5°C 45.7°F7.6°C 88% 1.8 mph W2.9 kmh W 4.5 mph7.2 kmh 30.45 in1031.2 mb 0.00 in0.0 mm 0.00 in/hr0.0 mm/hr 0.00 in0.0 mm
07:30 PM 47.0°F8.3°C 43.9°F6.6°C 89% Calm Calm 0.7 mph1.1 kmh 30.45 in1031.2 mb 0.00 in0.0 mm 0.00 in/hr0.0 mm/hr 0.00 in0.0 mm
08:00 PM 45.9°F7.7°C 43.7°F6.5°C 92% Calm Calm 1.6 mph2.6 kmh 30.44 in1030.8 mb 0.00 in0.0 mm 0.00 in/hr0.0 mm/hr 0.00 in0.0 mm
08:30 PM 45.5°F7.5°C 43.9°F6.6°C 94% 0.9 mph W1.4 kmh W 3.1 mph5.0 kmh 30.44 in1030.8 mb 0.00 in0.0 mm 0.00 in/hr0.0 mm/hr 0.00 in0.0 mm
09:00 PM 44.8°F7.1°C 43.2°F6.2°C 94% 0.7 mph WSW1.1 kmh WSW 3.1 mph5.0 kmh 30.43 in1030.5 mb 0.00 in0.0 mm 0.00 in/hr0.0 mm/hr 0.00 in0.0 mm
09:30 PM 43.3°F6.3°C 42.0°F5.6°C 95% 0.9 mph NW1.4 kmh NW 3.8 mph6.1 kmh 30.43 in1030.5 mb 0.00 in0.0 mm 0.00 in/hr0.0 mm/hr 0.00 in0.0 mm
10:00 PM 42.3°F5.7°C 41.2°F5.1°C 96% 2.1 mph W3.4 kmh W 3.8 mph6.1 kmh 30.43 in1030.5 mb 0.00 in0.0 mm 0.00 in/hr0.0 mm/hr 0.00 in0.0 mm
10:30 PM 41.4°F5.2°C 40.7°F4.8°C 97% 1.9 mph W3.1 kmh W 3.8 mph6.1 kmh 30.42 in1030.1 mb 0.00 in0.0 mm 0.00 in/hr0.0 mm/hr 0.00 in0.0 mm
11:00 PM 40.8°F4.9°C 40.0°F4.4°C 97% 0.7 mph WNW1.1 kmh WNW 2.2 mph3.5 kmh 30.41 in1029.8 mb 0.00 in0.0 mm 0.00 in/hr0.0 mm/hr 0.00 in0.0 mm
11:30 PM 40.3°F4.6°C 39.8°F4.3°C 98% 3.4 mph W5.5 kmh W 6.0 mph9.7 kmh 30.40 in1029.5 mb 0.00 in0.0 mm 0.00 in/hr0.0 mm/hr 0.00 in0.0 mm